Terminal Aerodrome Forecast
Issued by NWS

Home | Current Version | Previous Version | Text Only | Print | Product List | Glossary On
Versions: 1 2 3 4 5 6 7 8 9 10 11 12 13 14 15 16 17 18 19 20 21
000
FTUS41 KPHI 210210 AAA
TAFPNE
TAF AMD
KPNE 210210Z 2102/2124 VRB03KT 4SM BR SCT004 OVC020
      TEMPO 2102/2104 BKN004 OVC020
     FM210400 VRB03KT 3SM -DZ BR OVC004
      TEMPO 2109/2113 1SM BR OVC002
     FM211500 23004KT 3SM BR BKN005 OVC015
     FM211700 24004KT P6SM BKN015=

USA.gov is the U.S. government's official web portal to all federal, state and local government web resources and services.